sensor_id;sensor_type;location;lat;lon;timestamp;pressure;altitude;pressure_sealevel;temperature;humidity
78411;BME280;67706;51.074;-1.796;2024-01-27T00:00:43;103082.94;;;1.82;100.00
78411;BME280;67706;51.074;-1.796;2024-01-27T00:03:10;103076.09;;;1.75;100.00
78411;BME280;67706;51.074;-1.796;2024-01-27T00:05:36;103070.25;;;1.83;100.00
78411;BME280;67706;51.074;-1.796;2024-01-27T00:08:05;103070.34;;;1.81;100.00
78411;BME280;67706;51.074;-1.796;2024-01-27T00:10:32;103073.50;;;1.74;100.00
78411;BME280;67706;51.074;-1.796;2024-01-27T00:12:58;103077.16;;;1.73;100.00
78411;BME280;67706;51.074;-1.796;2024-01-27T00:15:25;103076.09;;;1.91;100.00
78411;BME280;67706;51.074;-1.796;2024-01-27T00:17:51;103074.38;;;1.90;100.00
78411;BME280;67706;51.074;-1.796;2024-01-27T00:20:18;103068.88;;;1.76;100.00
78411;BME280;67706;51.074;-1.796;2024-01-27T00:22:44;103065.03;;;1.80;100.00
78411;BME280;67706;51.074;-1.796;2024-01-27T00:25:13;103062.38;;;1.78;100.00
78411;BME280;67706;51.074;-1.796;2024-01-27T00:27:39;103056.28;;;1.75;100.00
78411;BME280;67706;51.074;-1.796;2024-01-27T00:30:06;103061.38;;;1.65;100.00
78411;BME280;67706;51.074;-1.796;2024-01-27T00:32:33;103064.75;;;1.69;100.00
78411;BME280;67706;51.074;-1.796;2024-01-27T00:35:00;103056.63;;;1.69;100.00
78411;BME280;67706;51.074;-1.796;2024-01-27T00:37:26;103048.38;;;1.72;100.00
78411;BME280;67706;51.074;-1.796;2024-01-27T00:39:53;103048.97;;;1.77;100.00
78411;BME280;67706;51.074;-1.796;2024-01-27T00:42:21;103057.25;;;1.74;100.00
78411;BME280;67706;51.074;-1.796;2024-01-27T00:44:49;103055.75;;;1.68;100.00
78411;BME280;67706;51.074;-1.796;2024-01-27T00:47:16;103042.25;;;1.52;100.00
78411;BME280;67706;51.074;-1.796;2024-01-27T00:49:42;103047.22;;;1.60;100.00
78411;BME280;67706;51.074;-1.796;2024-01-27T00:52:09;103047.47;;;1.55;100.00
78411;BME280;67706;51.074;-1.796;2024-01-27T00:54:36;103043.03;;;1.54;100.00
78411;BME280;67706;51.074;-1.796;2024-01-27T00:57:03;103044.06;;;1.52;100.00
78411;BME280;67706;51.074;-1.796;2024-01-27T00:59:31;103041.28;;;1.53;100.00
78411;BME280;67706;51.074;-1.796;2024-01-27T01:01:57;103038.81;;;1.49;100.00
78411;BME280;67706;51.074;-1.796;2024-01-27T01:04:24;103039.88;;;1.46;100.00
78411;BME280;67706;51.074;-1.796;2024-01-27T01:06:51;103044.75;;;1.55;100.00
78411;BME280;67706;51.074;-1.796;2024-01-27T01:09:17;103040.38;;;1.53;100.00
78411;BME280;67706;51.074;-1.796;2024-01-27T01:11:44;103042.16;;;1.54;100.00
78411;BME280;67706;51.074;-1.796;2024-01-27T01:14:10;103027.41;;;1.59;100.00
78411;BME280;67706;51.074;-1.796;2024-01-27T01:16:39;103028.38;;;1.58;100.00
78411;BME280;67706;51.074;-1.796;2024-01-27T01:19:06;103029.31;;;1.57;100.00
78411;BME280;67706;51.074;-1.796;2024-01-27T01:21:33;103027.31;;;1.45;100.00
78411;BME280;67706;51.074;-1.796;2024-01-27T01:23:59;103021.91;;;1.45;100.00
78411;BME280;67706;51.074;-1.796;2024-01-27T01:26:26;103020.34;;;1.41;100.00
78411;BME280;67706;51.074;-1.796;2024-01-27T01:28:53;103018.56;;;1.40;100.00
78411;BME280;67706;51.074;-1.796;2024-01-27T01:31:20;103008.81;;;1.38;100.00
78411;BME280;67706;51.074;-1.796;2024-01-27T01:33:48;103016.06;;;1.37;100.00
78411;BME280;67706;51.074;-1.796;2024-01-27T01:36:15;103009.69;;;1.54;100.00
78411;BME280;67706;51.074;-1.796;2024-01-27T01:38:41;103011.88;;;1.47;100.00
78411;BME280;67706;51.074;-1.796;2024-01-27T01:41:08;103013.16;;;1.40;100.00
78411;BME280;67706;51.074;-1.796;2024-01-27T01:43:34;103002.53;;;1.37;100.00
78411;BME280;67706;51.074;-1.796;2024-01-27T01:46:01;103015.63;;;1.29;100.00
78411;BME280;67706;51.074;-1.796;2024-01-27T01:48:29;103024.50;;;1.31;100.00
78411;BME280;67706;51.074;-1.796;2024-01-27T01:50:57;103011.19;;;1.44;100.00
78411;BME280;67706;51.074;-1.796;2024-01-27T01:53:25;103009.66;;;1.38;100.00
78411;BME280;67706;51.074;-1.796;2024-01-27T01:55:52;103003.47;;;1.36;100.00
78411;BME280;67706;51.074;-1.796;2024-01-27T01:58:19;103004.63;;;1.32;100.00
78411;BME280;67706;51.074;-1.796;2024-01-27T02:00:46;102997.91;;;1.39;100.00
78411;BME280;67706;51.074;-1.796;2024-01-27T02:03:13;102991.53;;;1.40;100.00
78411;BME280;67706;51.074;-1.796;2024-01-27T02:05:40;102997.47;;;1.31;100.00
78411;BME280;67706;51.074;-1.796;2024-01-27T02:08:08;103001.38;;;1.26;100.00
78411;BME280;67706;51.074;-1.796;2024-01-27T02:10:35;103003.19;;;1.10;100.00
78411;BME280;67706;51.074;-1.796;2024-01-27T02:13:03;103024.56;;;1.14;100.00
78411;BME280;67706;51.074;-1.796;2024-01-27T02:15:31;103027.72;;;1.22;100.00
78411;BME280;67706;51.074;-1.796;2024-01-27T02:17:58;103028.34;;;1.27;100.00
78411;BME280;67706;51.074;-1.796;2024-01-27T02:20:24;103037.50;;;1.25;100.00
78411;BME280;67706;51.074;-1.796;2024-01-27T02:22:51;103034.78;;;1.25;100.00
78411;BME280;67706;51.074;-1.796;2024-01-27T02:25:19;103020.59;;;1.21;100.00
78411;BME280;67706;51.074;-1.796;2024-01-27T02:27:45;103016.38;;;1.16;100.00
78411;BME280;67706;51.074;-1.796;2024-01-27T02:30:13;103016.78;;;1.08;100.00
78411;BME280;67706;51.074;-1.796;2024-01-27T02:32:40;103017.25;;;1.16;100.00
78411;BME280;67706;51.074;-1.796;2024-01-27T02:35:07;103020.63;;;1.20;100.00
78411;BME280;67706;51.074;-1.796;2024-01-27T02:37:34;103016.59;;;1.11;100.00
78411;BME280;67706;51.074;-1.796;2024-01-27T02:40:00;103019.66;;;1.05;100.00
78411;BME280;67706;51.074;-1.796;2024-01-27T02:42:28;103011.72;;;1.02;100.00
78411;BME280;67706;51.074;-1.796;2024-01-27T02:44:55;103023.16;;;1.07;100.00
78411;BME280;67706;51.074;-1.796;2024-01-27T02:47:22;103029.28;;;1.11;100.00
78411;BME280;67706;51.074;-1.796;2024-01-27T02:49:48;103032.03;;;1.09;100.00
78411;BME280;67706;51.074;-1.796;2024-01-27T02:52:15;103023.38;;;1.03;100.00
78411;BME280;67706;51.074;-1.796;2024-01-27T02:54:42;103015.75;;;1.11;100.00
78411;BME280;67706;51.074;-1.796;2024-01-27T02:57:08;103022.19;;;1.08;100.00
78411;BME280;67706;51.074;-1.796;2024-01-27T02:59:36;103024.28;;;1.03;100.00
78411;BME280;67706;51.074;-1.796;2024-01-27T03:02:04;103024.13;;;1.06;100.00
78411;BME280;67706;51.074;-1.796;2024-01-27T03:04:30;103026.97;;;1.03;100.00
78411;BME280;67706;51.074;-1.796;2024-01-27T03:06:57;103023.66;;;0.98;100.00
78411;BME280;67706;51.074;-1.796;2024-01-27T03:09:24;103026.38;;;0.98;100.00
78411;BME280;67706;51.074;-1.796;2024-01-27T03:11:50;103013.81;;;0.97;100.00
78411;BME280;67706;51.074;-1.796;2024-01-27T03:14:17;103012.22;;;0.93;100.00
78411;BME280;67706;51.074;-1.796;2024-01-27T03:16:45;103016.03;;;0.89;100.00
78411;BME280;67706;51.074;-1.796;2024-01-27T03:19:12;103010.06;;;1.00;100.00
78411;BME280;67706;51.074;-1.796;2024-01-27T03:21:38;103014.22;;;0.90;100.00
78411;BME280;67706;51.074;-1.796;2024-01-27T03:24:05;103002.53;;;0.89;100.00
78411;BME280;67706;51.074;-1.796;2024-01-27T03:26:32;103002.69;;;0.86;100.00
78411;BME280;67706;51.074;-1.796;2024-01-27T03:28:59;103014.47;;;0.85;100.00
78411;BME280;67706;51.074;-1.796;2024-01-27T03:31:30;103000.88;;;0.87;100.00
78411;BME280;67706;51.074;-1.796;2024-01-27T03:33:58;102998.41;;;0.82;100.00
78411;BME280;67706;51.074;-1.796;2024-01-27T03:36:24;102989.19;;;0.86;100.00
78411;BME280;67706;51.074;-1.796;2024-01-27T03:38:51;103004.00;;;0.79;100.00
78411;BME280;67706;51.074;-1.796;2024-01-27T03:41:18;103005.19;;;0.73;100.00
78411;BME280;67706;51.074;-1.796;2024-01-27T03:43:45;103008.19;;;0.85;100.00
78411;BME280;67706;51.074;-1.796;2024-01-27T03:46:11;103005.25;;;0.89;100.00
78411;BME280;67706;51.074;-1.796;2024-01-27T03:48:38;103002.69;;;0.86;100.00
78411;BME280;67706;51.074;-1.796;2024-01-27T03:51:06;103017.16;;;0.85;100.00
78411;BME280;67706;51.074;-1.796;2024-01-27T03:53:33;102992.19;;;0.97;100.00
78411;BME280;67706;51.074;-1.796;2024-01-27T03:55:59;102986.28;;;1.06;100.00
78411;BME280;67706;51.074;-1.796;2024-01-27T03:58:28;102983.13;;;0.98;100.00
78411;BME280;67706;51.074;-1.796;2024-01-27T04:00:54;102973.97;;;1.01;100.00
78411;BME280;67706;51.074;-1.796;2024-01-27T04:03:21;102979.66;;;0.96;100.00
78411;BME280;67706;51.074;-1.796;2024-01-27T04:05:48;102986.28;;;1.06;100.00
78411;BME280;67706;51.074;-1.796;2024-01-27T04:08:16;102974.09;;;1.15;100.00
78411;BME280;67706;51.074;-1.796;2024-01-27T04:10:42;102971.19;;;1.02;100.00
78411;BME280;67706;51.074;-1.796;2024-01-27T04:13:09;102975.38;;;1.08;100.00
78411;BME280;67706;51.074;-1.796;2024-01-27T04:15:36;102978.97;;;1.08;100.00
78411;BME280;67706;51.074;-1.796;2024-01-27T04:18:04;102975.53;;;0.89;100.00
78411;BME280;67706;51.074;-1.796;2024-01-27T04:20:33;102981.72;;;0.91;100.00
78411;BME280;67706;51.074;-1.796;2024-01-27T04:22:59;102968.44;;;0.87;100.00
78411;BME280;67706;51.074;-1.796;2024-01-27T04:25:27;102955.19;;;0.82;100.00
78411;BME280;67706;51.074;-1.796;2024-01-27T04:27:54;102951.34;;;0.86;100.00
78411;BME280;67706;51.074;-1.796;2024-01-27T04:30:21;102934.91;;;0.91;100.00
78411;BME280;67706;51.074;-1.796;2024-01-27T04:32:48;102954.06;;;0.86;100.00
78411;BME280;67706;51.074;-1.796;2024-01-27T04:35:17;102961.13;;;0.89;100.00
78411;BME280;67706;51.074;-1.796;2024-01-27T04:37:44;102965.75;;;0.87;100.00
78411;BME280;67706;51.074;-1.796;2024-01-27T04:40:11;102978.50;;;1.00;100.00
78411;BME280;67706;51.074;-1.796;2024-01-27T04:42:39;102969.09;;;1.07;100.00
78411;BME280;67706;51.074;-1.796;2024-01-27T04:45:07;102968.66;;;0.99;100.00
78411;BME280;67706;51.074;-1.796;2024-01-27T04:47:33;102982.41;;;0.95;100.00
78411;BME280;67706;51.074;-1.796;2024-01-27T04:50:00;102977.44;;;1.03;100.00
78411;BME280;67706;51.074;-1.796;2024-01-27T04:52:27;102971.97;;;1.04;100.00
78411;BME280;67706;51.074;-1.796;2024-01-27T04:54:53;102975.13;;;1.12;100.00
78411;BME280;67706;51.074;-1.796;2024-01-27T04:57:20;102970.75;;;1.10;100.00
78411;BME280;67706;51.074;-1.796;2024-01-27T04:59:48;102968.25;;;1.22;100.00
78411;BME280;67706;51.074;-1.796;2024-01-27T05:02:14;102965.88;;;1.16;100.00
78411;BME280;67706;51.074;-1.796;2024-01-27T05:04:41;102958.56;;;1.18;100.00
78411;BME280;67706;51.074;-1.796;2024-01-27T05:07:08;102958.47;;;1.20;100.00
78411;BME280;67706;51.074;-1.796;2024-01-27T05:09:34;102965.19;;;1.28;100.00
78411;BME280;67706;51.074;-1.796;2024-01-27T05:12:01;102951.06;;;1.39;100.00
78411;BME280;67706;51.074;-1.796;2024-01-27T05:14:28;102937.91;;;1.48;100.00
78411;BME280;67706;51.074;-1.796;2024-01-27T05:16:56;102924.97;;;1.53;100.00
78411;BME280;67706;51.074;-1.796;2024-01-27T05:19:23;102943.13;;;1.51;100.00
78411;BME280;67706;51.074;-1.796;2024-01-27T05:21:49;102943.91;;;1.53;100.00
78411;BME280;67706;51.074;-1.796;2024-01-27T05:24:16;102932.94;;;1.56;100.00
78411;BME280;67706;51.074;-1.796;2024-01-27T05:26:42;102929.22;;;1.73;100.00
78411;BME280;67706;51.074;-1.796;2024-01-27T05:29:09;102941.72;;;1.76;100.00
78411;BME280;67706;51.074;-1.796;2024-01-27T05:31:36;102937.16;;;1.76;100.00
78411;BME280;67706;51.074;-1.796;2024-01-27T05:34:04;102940.88;;;1.89;100.00
78411;BME280;67706;51.074;-1.796;2024-01-27T05:36:31;102928.03;;;1.93;100.00
78411;BME280;67706;51.074;-1.796;2024-01-27T05:38:57;102929.88;;;1.92;100.00
78411;BME280;67706;51.074;-1.796;2024-01-27T05:41:26;102935.38;;;1.91;100.00
78411;BME280;67706;51.074;-1.796;2024-01-27T05:43:56;102941.56;;;1.93;100.00
78411;BME280;67706;51.074;-1.796;2024-01-27T05:46:23;102947.94;;;1.92;100.00
78411;BME280;67706;51.074;-1.796;2024-01-27T05:48:50;102969.34;;;1.96;100.00
78411;BME280;67706;51.074;-1.796;2024-01-27T05:51:21;102968.97;;;2.02;100.00
78411;BME280;67706;51.074;-1.796;2024-01-27T05:53:48;102954.97;;;2.10;100.00
78411;BME280;67706;51.074;-1.796;2024-01-27T05:56:15;102951.03;;;2.15;100.00
78411;BME280;67706;51.074;-1.796;2024-01-27T05:58:42;102950.25;;;2.13;100.00
78411;BME280;67706;51.074;-1.796;2024-01-27T06:01:09;102949.34;;;1.99;100.00
78411;BME280;67706;51.074;-1.796;2024-01-27T06:03:35;102937.53;;;2.00;100.00
78411;BME280;67706;51.074;-1.796;2024-01-27T06:06:02;102916.28;;;2.08;100.00
78411;BME280;67706;51.074;-1.796;2024-01-27T06:08:30;102908.00;;;2.11;100.00
78411;BME280;67706;51.074;-1.796;2024-01-27T06:10:57;102896.06;;;1.99;100.00
78411;BME280;67706;51.074;-1.796;2024-01-27T06:13:23;102896.44;;;1.93;100.00
78411;BME280;67706;51.074;-1.796;2024-01-27T06:15:50;102895.16;;;1.85;100.00
78411;BME280;67706;51.074;-1.796;2024-01-27T06:18:17;102907.53;;;1.89;100.00
78411;BME280;67706;51.074;-1.796;2024-01-27T06:20:44;102916.78;;;1.85;100.00
78411;BME280;67706;51.074;-1.796;2024-01-27T06:23:10;102919.44;;;1.86;100.00
78411;BME280;67706;51.074;-1.796;2024-01-27T06:25:38;102920.28;;;1.87;100.00
78411;BME280;67706;51.074;-1.796;2024-01-27T06:28:05;102917.19;;;1.93;100.00
78411;BME280;67706;51.074;-1.796;2024-01-27T06:30:32;102917.06;;;1.80;100.00
78411;BME280;67706;51.074;-1.796;2024-01-27T06:32:58;102923.00;;;1.87;100.00
78411;BME280;67706;51.074;-1.796;2024-01-27T06:35:25;102915.84;;;1.86;100.00
78411;BME280;67706;51.074;-1.796;2024-01-27T06:37:52;102910.94;;;1.92;100.00
78411;BME280;67706;51.074;-1.796;2024-01-27T06:40:18;102905.44;;;1.94;100.00
78411;BME280;67706;51.074;-1.796;2024-01-27T06:42:46;102900.97;;;1.93;100.00
78411;BME280;67706;51.074;-1.796;2024-01-27T06:45:13;102911.31;;;1.86;100.00
78411;BME280;67706;51.074;-1.796;2024-01-27T06:47:40;102895.38;;;1.96;100.00
78411;BME280;67706;51.074;-1.796;2024-01-27T06:50:07;102907.66;;;2.01;100.00
78411;BME280;67706;51.074;-1.796;2024-01-27T06:52:34;102916.75;;;2.00;100.00
78411;BME280;67706;51.074;-1.796;2024-01-27T06:55:01;102917.34;;;2.05;100.00
78411;BME280;67706;51.074;-1.796;2024-01-27T06:57:27;102920.16;;;2.04;100.00
78411;BME280;67706;51.074;-1.796;2024-01-27T06:59:55;102909.16;;;2.07;100.00
78411;BME280;67706;51.074;-1.796;2024-01-27T07:02:22;102899.19;;;2.07;100.00
78411;BME280;67706;51.074;-1.796;2024-01-27T07:04:49;102915.06;;;2.13;100.00
78411;BME280;67706;51.074;-1.796;2024-01-27T07:07:16;102914.97;;;2.15;100.00
78411;BME280;67706;51.074;-1.796;2024-01-27T07:09:42;102913.81;;;2.19;100.00
78411;BME280;67706;51.074;-1.796;2024-01-27T07:12:09;102909.94;;;2.23;100.00
78411;BME280;67706;51.074;-1.796;2024-01-27T07:14:35;102916.34;;;2.22;100.00
78411;BME280;67706;51.074;-1.796;2024-01-27T07:17:04;102920.00;;;2.21;100.00
78411;BME280;67706;51.074;-1.796;2024-01-27T07:19:30;102912.66;;;2.23;100.00
78411;BME280;67706;51.074;-1.796;2024-01-27T07:21:57;102895.47;;;2.24;100.00
78411;BME280;67706;51.074;-1.796;2024-01-27T07:24:24;102907.53;;;2.18;100.00
78411;BME280;67706;51.074;-1.796;2024-01-27T07:26:50;102904.03;;;2.16;100.00
78411;BME280;67706;51.074;-1.796;2024-01-27T07:29:17;102911.59;;;2.11;100.00
78411;BME280;67706;51.074;-1.796;2024-01-27T07:31:43;102900.31;;;2.03;100.00
78411;BME280;67706;51.074;-1.796;2024-01-27T07:34:11;102899.28;;;2.06;100.00
78411;BME280;67706;51.074;-1.796;2024-01-27T07:36:38;102892.91;;;2.07;100.00
78411;BME280;67706;51.074;-1.796;2024-01-27T07:39:04;102902.19;;;2.17;100.00
78411;BME280;67706;51.074;-1.796;2024-01-27T07:41:31;102899.78;;;2.12;100.00
78411;BME280;67706;51.074;-1.796;2024-01-27T07:44:06;102888.94;;;2.12;100.00
78411;BME280;67706;51.074;-1.796;2024-01-27T07:46:33;102897.56;;;2.19;100.00
78411;BME280;67706;51.074;-1.796;2024-01-27T07:49:01;102893.44;;;2.27;100.00
78411;BME280;67706;51.074;-1.796;2024-01-27T07:51:29;102897.56;;;2.19;100.00
78411;BME280;67706;51.074;-1.796;2024-01-27T07:53:56;102893.97;;;2.18;100.00
78411;BME280;67706;51.074;-1.796;2024-01-27T07:56:22;102886.63;;;2.20;100.00
78411;BME280;67706;51.074;-1.796;2024-01-27T07:58:49;102895.53;;;2.22;100.00
78411;BME280;67706;51.074;-1.796;2024-01-27T08:01:16;102901.66;;;2.26;100.00
78411;BME280;67706;51.074;-1.796;2024-01-27T08:03:42;102899.50;;;2.31;100.00
78411;BME280;67706;51.074;-1.796;2024-01-27T08:06:15;102892.75;;;2.24;100.00
78411;BME280;67706;51.074;-1.796;2024-01-27T08:08:44;102895.16;;;2.28;100.00
78411;BME280;67706;51.074;-1.796;2024-01-27T08:11:11;102894.69;;;2.22;100.00
78411;BME280;67706;51.074;-1.796;2024-01-27T08:13:37;102900.25;;;2.05;100.00
78411;BME280;67706;51.074;-1.796;2024-01-27T08:16:04;102897.53;;;2.05;100.00
78411;BME280;67706;51.074;-1.796;2024-01-27T08:18:31;102901.56;;;1.98;100.00
78411;BME280;67706;51.074;-1.796;2024-01-27T08:20:57;102904.00;;;2.02;100.00
78411;BME280;67706;51.074;-1.796;2024-01-27T08:23:24;102907.38;;;2.06;100.00
78411;BME280;67706;51.074;-1.796;2024-01-27T08:25:52;102913.97;;;2.02;100.00
78411;BME280;67706;51.074;-1.796;2024-01-27T08:28:18;102917.81;;;1.98;100.00
78411;BME280;67706;51.074;-1.796;2024-01-27T08:30:45;102923.22;;;1.98;100.00
78411;BME280;67706;51.074;-1.796;2024-01-27T08:33:12;102927.69;;;1.99;100.00
78411;BME280;67706;51.074;-1.796;2024-01-27T08:35:38;102921.50;;;1.97;100.00
78411;BME280;67706;51.074;-1.796;2024-01-27T08:38:06;102919.56;;;1.99;100.00
78411;BME280;67706;51.074;-1.796;2024-01-27T08:40:33;102925.00;;;1.99;100.00
78411;BME280;67706;51.074;-1.796;2024-01-27T08:43:02;102924.63;;;2.05;100.00
78411;BME280;67706;51.074;-1.796;2024-01-27T08:45:29;102912.44;;;2.12;100.00
78411;BME280;67706;51.074;-1.796;2024-01-27T08:47:56;102913.22;;;2.14;100.00
78411;BME280;67706;51.074;-1.796;2024-01-27T08:50:22;102914.84;;;2.02;100.00
78411;BME280;67706;51.074;-1.796;2024-01-27T08:52:49;102913.03;;;2.17;100.00
78411;BME280;67706;51.074;-1.796;2024-01-27T08:55:16;102917.13;;;2.38;100.00
78411;BME280;67706;51.074;-1.796;2024-01-27T08:57:44;102904.88;;;2.47;100.00
78411;BME280;67706;51.074;-1.796;2024-01-27T09:00:13;102914.81;;;2.46;100.00
78411;BME280;67706;51.074;-1.796;2024-01-27T09:02:41;102908.34;;;2.49;100.00
78411;BME280;67706;51.074;-1.796;2024-01-27T09:05:08;102915.09;;;2.56;100.00
78411;BME280;67706;51.074;-1.796;2024-01-27T09:07:36;102911.66;;;2.68;100.00
78411;BME280;67706;51.074;-1.796;2024-01-27T09:10:02;102910.28;;;2.75;100.00
78411;BME280;67706;51.074;-1.796;2024-01-27T09:12:29;102911.75;;;2.80;100.00
78411;BME280;67706;51.074;-1.796;2024-01-27T09:14:56;102905.94;;;2.86;100.00
78411;BME280;67706;51.074;-1.796;2024-01-27T09:17:24;102916.66;;;2.88;100.00
78411;BME280;67706;51.074;-1.796;2024-01-27T09:19:51;102912.22;;;2.87;100.00
78411;BME280;67706;51.074;-1.796;2024-01-27T09:22:17;102918.88;;;2.95;100.00
78411;BME280;67706;51.074;-1.796;2024-01-27T09:24:44;102914.03;;;3.00;100.00
78411;BME280;67706;51.074;-1.796;2024-01-27T09:27:10;102907.44;;;3.04;100.00
78411;BME280;67706;51.074;-1.796;2024-01-27T09:29:37;102909.56;;;3.13;100.00
78411;BME280;67706;51.074;-1.796;2024-01-27T09:32:04;102913.53;;;3.22;100.00
78411;BME280;67706;51.074;-1.796;2024-01-27T09:34:32;102914.97;;;3.28;100.00
78411;BME280;67706;51.074;-1.796;2024-01-27T09:36:59;102923.28;;;3.39;100.00
78411;BME280;67706;51.074;-1.796;2024-01-27T09:39:25;102912.78;;;3.47;100.00
78411;BME280;67706;51.074;-1.796;2024-01-27T09:41:53;102907.25;;;3.48;100.00
78411;BME280;67706;51.074;-1.796;2024-01-27T09:44:21;102914.56;;;3.60;100.00
78411;BME280;67706;51.074;-1.796;2024-01-27T09:46:48;102908.63;;;3.68;100.00
78411;BME280;67706;51.074;-1.796;2024-01-27T09:49:15;102919.50;;;3.68;100.00
78411;BME280;67706;51.074;-1.796;2024-01-27T09:51:43;102926.50;;;3.58;100.00
78411;BME280;67706;51.074;-1.796;2024-01-27T09:54:10;102934.34;;;3.62;100.00
78411;BME280;67706;51.074;-1.796;2024-01-27T09:56:36;102930.53;;;3.65;100.00
78411;BME280;67706;51.074;-1.796;2024-01-27T09:59:05;102941.31;;;3.66;100.00
78411;BME280;67706;51.074;-1.796;2024-01-27T10:01:33;102937.78;;;3.78;100.00
78411;BME280;67706;51.074;-1.796;2024-01-27T10:04:01;102960.97;;;3.70;100.00
78411;BME280;67706;51.074;-1.796;2024-01-27T10:06:28;102946.34;;;3.72;100.00
78411;BME280;67706;51.074;-1.796;2024-01-27T10:08:56;102946.88;;;3.77;100.00
78411;BME280;67706;51.074;-1.796;2024-01-27T10:11:23;102940.22;;;3.95;100.00
78411;BME280;67706;51.074;-1.796;2024-01-27T10:13:54;102939.91;;;4.00;100.00
78411;BME280;67706;51.074;-1.796;2024-01-27T10:16:21;102912.66;;;4.01;100.00
78411;BME280;67706;51.074;-1.796;2024-01-27T10:18:58;102928.84;;;4.16;100.00
78411;BME280;67706;51.074;-1.796;2024-01-27T10:21:25;102933.34;;;4.29;100.00
78411;BME280;67706;51.074;-1.796;2024-01-27T10:23:52;102925.63;;;4.48;100.00
78411;BME280;67706;51.074;-1.796;2024-01-27T10:26:20;102926.41;;;4.63;100.00
78411;BME280;67706;51.074;-1.796;2024-01-27T10:28:52;102922.91;;;4.73;100.00
78411;BME280;67706;51.074;-1.796;2024-01-27T10:31:19;102917.28;;;4.76;100.00
78411;BME280;67706;51.074;-1.796;2024-01-27T10:33:51;102921.16;;;4.98;100.00
78411;BME280;67706;51.074;-1.796;2024-01-27T10:36:18;102913.56;;;5.03;100.00
78411;BME280;67706;51.074;-1.796;2024-01-27T10:38:45;102910.25;;;5.10;100.00
78411;BME280;67706;51.074;-1.796;2024-01-27T10:41:20;102910.09;;;5.24;100.00
78411;BME280;67706;51.074;-1.796;2024-01-27T10:43:50;102910.44;;;5.20;100.00
78411;BME280;67706;51.074;-1.796;2024-01-27T10:46:19;102923.25;;;5.30;100.00
78411;BME280;67706;51.074;-1.796;2024-01-27T10:48:48;102910.41;;;5.32;100.00
78411;BME280;67706;51.074;-1.796;2024-01-27T10:51:18;102920.28;;;5.46;100.00
78411;BME280;67706;51.074;-1.796;2024-01-27T10:53:49;102918.16;;;5.62;100.00
78411;BME280;67706;51.074;-1.796;2024-01-27T10:56:16;102914.81;;;5.82;100.00
78411;BME280;67706;51.074;-1.796;2024-01-27T10:58:45;102913.34;;;6.13;100.00
78411;BME280;67706;51.074;-1.796;2024-01-27T11:01:15;102910.22;;;6.06;100.00
78411;BME280;67706;51.074;-1.796;2024-01-27T11:03:45;102908.88;;;6.12;100.00
78411;BME280;67706;51.074;-1.796;2024-01-27T11:06:13;102904.06;;;6.26;100.00
78411;BME280;67706;51.074;-1.796;2024-01-27T11:08:41;102898.91;;;6.34;100.00
78411;BME280;67706;51.074;-1.796;2024-01-27T11:11:08;102905.03;;;6.49;100.00
78411;BME280;67706;51.074;-1.796;2024-01-27T11:13:36;102897.09;;;6.57;100.00
78411;BME280;67706;51.074;-1.796;2024-01-27T11:16:15;102894.75;;;6.75;100.00
78411;BME280;67706;51.074;-1.796;2024-01-27T11:18:42;102885.59;;;6.76;100.00
78411;BME280;67706;51.074;-1.796;2024-01-27T11:21:13;102876.16;;;6.80;100.00
78411;BME280;67706;51.074;-1.796;2024-01-27T11:23:40;102877.50;;;6.85;100.00
78411;BME280;67706;51.074;-1.796;2024-01-27T11:26:07;102871.56;;;6.91;100.00
78411;BME280;67706;51.074;-1.796;2024-01-27T11:28:35;102868.97;;;7.01;100.00
78411;BME280;67706;51.074;-1.796;2024-01-27T11:31:07;102868.44;;;7.07;100.00
78411;BME280;67706;51.074;-1.796;2024-01-27T11:33:41;102865.44;;;7.21;100.00
78411;BME280;67706;51.074;-1.796;2024-01-27T11:36:07;102864.25;;;7.46;100.00
78411;BME280;67706;51.074;-1.796;2024-01-27T11:38:34;102859.91;;;7.54;100.00
78411;BME280;67706;51.074;-1.796;2024-01-27T11:41:01;102856.16;;;7.66;100.00
78411;BME280;67706;51.074;-1.796;2024-01-27T11:43:28;102851.03;;;7.73;100.00
78411;BME280;67706;51.074;-1.796;2024-01-27T11:45:55;102841.69;;;7.75;100.00
78411;BME280;67706;51.074;-1.796;2024-01-27T11:48:24;102845.91;;;7.79;100.00
78411;BME280;67706;51.074;-1.796;2024-01-27T11:51:02;102840.56;;;7.78;100.00
78411;BME280;67706;51.074;-1.796;2024-01-27T11:53:29;102825.13;;;8.09;100.00
78411;BME280;67706;51.074;-1.796;2024-01-27T11:55:56;102824.66;;;8.03;100.00
78411;BME280;67706;51.074;-1.796;2024-01-27T11:58:24;102818.91;;;8.07;100.00
78411;BME280;67706;51.074;-1.796;2024-01-27T12:00:51;102816.13;;;8.18;100.00
78411;BME280;67706;51.074;-1.796;2024-01-27T12:03:18;102807.94;;;8.18;100.00
78411;BME280;67706;51.074;-1.796;2024-01-27T12:05:46;102820.19;;;8.23;100.00
78411;BME280;67706;51.074;-1.796;2024-01-27T12:08:13;102817.88;;;8.19;100.00
78411;BME280;67706;51.074;-1.796;2024-01-27T12:10:40;102813.06;;;8.11;100.00
78411;BME280;67706;51.074;-1.796;2024-01-27T12:13:06;102820.59;;;8.19;100.00
78411;BME280;67706;51.074;-1.796;2024-01-27T12:15:33;102826.44;;;8.25;100.00
78411;BME280;67706;51.074;-1.796;2024-01-27T12:17:59;102823.16;;;8.31;100.00
78411;BME280;67706;51.074;-1.796;2024-01-27T12:20:26;102832.34;;;8.30;100.00
78411;BME280;67706;51.074;-1.796;2024-01-27T12:23:03;102834.50;;;8.27;100.00
78411;BME280;67706;51.074;-1.796;2024-01-27T12:25:30;102835.97;;;8.31;100.00
78411;BME280;67706;51.074;-1.796;2024-01-27T12:27:56;102829.69;;;8.40;100.00
78411;BME280;67706;51.074;-1.796;2024-01-27T12:30:26;102830.69;;;8.39;100.00
78411;BME280;67706;51.074;-1.796;2024-01-27T12:32:53;102825.53;;;8.45;100.00
78411;BME280;67706;51.074;-1.796;2024-01-27T12:35:19;102822.50;;;8.48;100.00
78411;BME280;67706;51.074;-1.796;2024-01-27T12:37:46;102822.13;;;8.53;100.00
78411;BME280;67706;51.074;-1.796;2024-01-27T12:40:21;102814.06;;;8.51;100.00